Terminal Aerodrome Forecast
Issued by NWS Pueblo, CO

Home | Current Version | Previous Version | Text Only | Print | Product List | Glossary On
Versions: 1 2 3 4 5 6 7 8 9 10 11 12 13 14 15 16 17 18 19 20 21 22 23 24 25 26 27 28 29
000
FTUS45 KPUB 201722
TAFPUB
TAF
KPUB 201722Z 2018/2118 12008KT P6SM BKN018
     FM202000 13008KT P6SM SCT025 BKN100
     FM210300 10006KT P6SM BKN030
     FM211500 12004KT P6SM BKN040=

USA.gov is the U.S. government's official web portal to all federal, state and local government web resources and services.